Nearby METAR Reports

 

KTEB - Teterboro, New Jersey, USA
Distance from station: ENE 2mi, 4km
Updated: 01/18/2020 8:51am
Overcast
Overcast
 Wind from varies
Wind: varies 3 mph , 6 km/h
Temperature: 23°F , -5°C
Dew Point: 1°F , -17°C
Humidity: 39%
Barometer: 30.52 inHg , 1033.5 hPa
Clouds: Overcast
Visibility: 10 miles , 16 km
Cloud details: Overcast 11000 ft
2020/01/18 13:51 KTEB 181351Z VRB03KT 10SM OVC110 M05/M17 A3052 RMK AO2 SLP336 T10501172
KNYC - Nyc/Central Park, New York, USA
Distance from station: SE 8mi, 13km
Updated: 01/18/2020 8:51am
Overcast
Overcast
 Wind from E
Wind: E 8 mph , 13 km/h
Temperature: 23°F , -5°C
Wind Chill: 14°F , -10°C
Dew Point: 3°F , -16°C
Humidity: 42%
Barometer: 30.53 inHg , 1033.9 hPa
Clouds: Overcast
Visibility: 10 miles , 16 km
Cloud details: Overcast 11000 ft
2020/01/18 13:51 KNYC 181351Z 09007KT 10SM OVC110 M05/M16 A3053 RMK AO2 SLP333 T10501161
 
KCDW - Caldwell, New Jersey, USA
Distance from station: WNW 10mi, 17km
Updated: 01/18/2020 8:53am
Overcast
Overcast
 Wind from E
Wind: E 6 mph , 9 km/h
Temperature: 21°F , -6°C
Wind Chill: 13°F , -11°C
Dew Point: 3°F , -16°C
Humidity: 45%
Barometer: 30.52 inHg , 1033.5 hPa
Clouds: Overcast
Visibility: 10 miles , 16 km
Cloud details: Overcast 11000 ft
2020/01/18 13:53 KCDW 181353Z 08005KT 10SM OVC110 M06/M16 A3052 RMK AO2 SLP342 T10561161
KLGA - Nyc/La Guardia, New York, USA
Distance from station: ESE 12mi, 19km
Updated: 01/18/2020 8:51am
Overcast
Overcast
 Wind from E
Wind: E 7 mph , 11 km/h
Temperature: 21°F , -6°C
Wind Chill: 12°F , -11°C
Dew Point: 1°F , -17°C
Humidity: 42%
Barometer: 30.53 inHg , 1033.9 hPa
Clouds: Overcast
Visibility: 10 miles , 16 km
Cloud details: Mostly cloudy 10000 ft
Overcast 14000 ft
2020/01/18 13:51 KLGA 181351Z 09006KT 10SM BKN100 OVC140 M06/M17 A3053 RMK AO2 SLP338 T10611167
 
KEWR - Newark, New Jersey, USA
Distance from station: SSW 12mi, 20km
Updated: 01/18/2020 8:51am
Overcast
Overcast
 Wind from E
Wind: E 5 mph , 7 km/h
Temperature: 23°F , -5°C
Wind Chill: 17°F , -8°C
Dew Point: 3°F , -16°C
Humidity: 42%
Barometer: 30.52 inHg , 1033.5 hPa
Clouds: Overcast
Visibility: 10 miles , 16 km
Cloud details: Overcast 10000 ft
2020/01/18 13:51 KEWR 181351Z 09004KT 10SM OVC100 M05/M16 A3052 RMK AO2 SLP335 VIRGA T10501161
KMMU - Morristown Muni, New Jersey, USA
Distance from station: WSW 18mi, 29km
Updated: 01/18/2020 8:45am
Overcast
Overcast
 Wind from E
Wind: E 6 mph , 9 km/h
Temperature: 21°F , -6°C
Wind Chill: 13°F , -11°C
Dew Point: 7°F , -14°C
Humidity: 54%
Barometer: 30.52 inHg , 1033.5 hPa
Clouds: Overcast
Visibility: 10 miles , 16 km
Cloud details: Overcast 9000 ft
2020/01/18 13:45 KMMU 181345Z 10005KT 10SM OVC090 M06/M14 A3052
 
KJFK - Nyc/Jfk Arpt, New York, USA
Distance from station: SE 23mi, 36km
Updated: 01/18/2020 8:51am
Overcast
Overcast
 Wind from E
Wind: E 7 mph , 11 km/h
Temperature: 21°F , -6°C
Wind Chill: 12°F , -11°C
Dew Point: 5°F , -15°C
Humidity: 49%
Barometer: 30.55 inHg , 1034.5 hPa
Clouds: Overcast
Visibility: 10 miles , 16 km
Cloud details: Mostly cloudy 12000 ft
Overcast 15000 ft
2020/01/18 13:51 KJFK 181351Z 08006KT 10SM BKN120 OVC150 M06/M15 A3055 RMK AO2 SLP343 T10561150 $
KHPN - White Plains, New York, USA
Distance from station: NE 25mi, 40km
Updated: 01/18/2020 8:56am
Mostly cloudy
Mostly cloudy
 Wind from SE
Wind: SE 3 mph , 6 km/h
Temperature: 18°F , -8°C
Dew Point: -0°F , -18°C
Humidity: 45%
Barometer: 30.49 inHg , 1032.5 hPa
Clouds: Mostly cloudy
Visibility: 10 miles , 16 km
Cloud details: Few Clouds 9000 ft
Mostly cloudy 11000 ft
2020/01/18 13:56 KHPN 181356Z 14003KT 10SM FEW090 BKN110 M08/M18 A3049 RMK AO2 SLP339 T10831183
 
KSMQ - Somerville, New Jersey, USA
Distance from station: WSW 34mi, 55km
Updated: 01/18/2020 8:53am
Overcast
Overcast
 Wind from ESE
Wind: ESE 3 mph , 6 km/h
Temperature: 21°F , -6°C
Dew Point: 1°F , -17°C
Humidity: 42%
Barometer: 30.51 inHg , 1033.2 hPa
Clouds: Overcast
Visibility: 10 miles , 16 km
Cloud details: Overcast 11000 ft
2020/01/18 13:53 KSMQ 181353Z AUTO 12003KT 10SM OVC110 M06/M17 A3051 RMK AO2 SLP335 T10561167
K12N - Andover, New Jersey, USA
Distance from station: WNW 36mi, 57km
Updated: 01/18/2020 8:54am

 Wind from calm
Wind: Calm
Temperature: 19°F , -7°C
Dew Point: 3°F , -16°C
Humidity: 49%
Barometer: 30.46 inHg , 1031.5 hPa
2020/01/18 13:54 K12N 181354Z AUTO 00000KT M07/M16 A3046 RMK AO1 SLP334 T10721161
 
KFRG - Farmingdale, New York, USA
Distance from station: ESE 36mi, 58km
Updated: 01/18/2020 8:53am
Overcast
Overcast
 Wind from calm
Wind: Calm
Temperature: 21°F , -6°C
Dew Point: 3°F , -16°C
Humidity: 45%
Barometer: 30.54 inHg , 1034.2 hPa
Clouds: Overcast
Visibility: 10 miles , 16 km
Cloud details: Partly cloudy 9000 ft
Overcast 11000 ft
2020/01/18 13:53 KFRG 181353Z 00000KT 10SM SCT090 OVC110 M06/M16 A3054 RMK AO2 SLP344 T10611161
KFWN - Sussex, New Jersey, USA
Distance from station: NW 37mi, 60km
Updated: 01/18/2020 8:53am
Overcast
Overcast
 Wind from ENE
Wind: ENE 5 mph , 7 km/h
Temperature: 18°F , -8°C
Wind Chill: 11°F , -12°C
Dew Point: 3°F , -16°C
Humidity: 53%
Barometer: 30.45 inHg , 1031.2 hPa
Clouds: Overcast
Visibility: 10 miles , 16 km
Cloud details: Overcast 9000 ft
2020/01/18 13:53 KFWN 181353Z AUTO 07004KT 10SM OVC090 M08/M16 A3045 RMK AO2 SLP319 T10781161
 
KSWF - Newburgh/Stewart, New York, USA
Distance from station: 0 45mi, 72km
Updated: 01/18/2020 8:45am
Mostly cloudy
Mostly cloudy
 Wind from varies
Wind: varies 5 mph , 7 km/h
Temperature: 14°F , -10°C
Wind Chill: 6°F , -14°C
Dew Point: 5°F , -15°C
Humidity: 67%
Barometer: 30.49 inHg , 1032.5 hPa
Clouds: Mostly cloudy
Visibility: 10 miles , 16 km
Cloud details: Mostly cloudy 10000 ft
2020/01/18 13:45 KSWF 181345Z VRB04KT 10SM BKN100 M10/M15 A3049 RMK PRESFR
KMGJ - Montgomery, New York, USA
Distance from station: NNW 47mi, 75km
Updated: 01/18/2020 8:54am
Overcast
Overcast
 Wind from ENE
Wind: ENE 3 mph , 6 km/h
Temperature: 16°F , -9°C
Dew Point: 3°F , -16°C
Humidity: 57%
Barometer: 30.48 inHg , 1032.2 hPa
Clouds: Overcast
Visibility: 10 miles , 16 km
Cloud details: Overcast 10000 ft
2020/01/18 13:54 KMGJ 181354Z AUTO 06003KT 10SM OVC100 M09/M16 A3048 RMK AO2 SLP327 T10941161
 
KBLM - Belmar/Farmdale, New Jersey, USA
Distance from station: S 47mi, 76km
Updated: 01/18/2020 8:56am
Overcast
Overcast
 Wind from E
Wind: E 3 mph , 6 km/h
Temperature: 23°F , -5°C
Dew Point: 9°F , -13°C
Humidity: 54%
Barometer: 30.53 inHg , 1033.9 hPa
Clouds: Overcast
Visibility: 10 miles , 16 km
Cloud details: Overcast 9000 ft
2020/01/18 13:56 KBLM 181356Z AUTO 10003KT 10SM OVC090 M05/M13 A3053 RMK AO2 SLP342 T10501133 FZRANO
KDXR - Danbury, Connecticut, USA
Distance from station: NE 47mi, 76km
Updated: 01/18/2020 8:53am
Overcast
Overcast
 Wind from calm
Wind: Calm
Temperature: 16°F , -9°C
Dew Point: -0°F , -18°C
Humidity: 48%
Barometer: 30.50 inHg , 1032.8 hPa
Clouds: Overcast
Visibility: 10 miles , 16 km
Cloud details: Overcast 8000 ft
2020/01/18 13:53 KDXR 181353Z 00000KT 10SM OVC080 M09/M18 A3050 RMK AO2 SLP337 T10941183
 
KISP - Islip, New York, USA
Distance from station: E 52mi, 83km
Updated: 01/18/2020 8:56am
Overcast
Overcast
 Wind from NNE
Wind: NNE 3 mph , 6 km/h
Temperature: 21°F , -6°C
Dew Point: 7°F , -14°C
Humidity: 54%
Barometer: 30.53 inHg , 1033.9 hPa
Clouds: Overcast
Visibility: 10 miles , 16 km
Cloud details: Few Clouds 11000 ft
Overcast 13000 ft
2020/01/18 13:56 KISP 181356Z 03003KT 10SM FEW110 OVC130 M06/M14 A3053 RMK AO2 PRESFR SLP340 T10611144
KBDR - Bridgeport, Connecticut, USA
Distance from station: ENE 54mi, 87km
Updated: 01/18/2020 8:52am
Partly cloudy
Partly cloudy
 Wind from NW
Wind: NW 3 mph , 6 km/h
Temperature: 19°F , -7°C
Dew Point: -0°F , -18°C
Humidity: 42%
Barometer: 30.55 inHg , 1034.5 hPa
Clouds: Partly cloudy
Visibility: 10 miles , 16 km
Cloud details: Partly cloudy 12000 ft
2020/01/18 13:52 KBDR 181352Z 32003KT 10SM SCT120 M07/M18 A3055 RMK AO2 SLP343 T10721178
 
KTTN - Trenton, New Jersey, USA
Distance from station: SW 55mi, 88km
Updated: 01/18/2020 8:53am
Overcast
Overcast
 Wind from SE
Wind: SE 3 mph , 6 km/h
Temperature: 21°F , -6°C
Dew Point: 3°F , -16°C
Humidity: 45%
Barometer: 30.52 inHg , 1033.5 hPa
Clouds: Overcast
Visibility: 10 miles , 16 km
Cloud details: Overcast 10000 ft
2020/01/18 13:53 KTTN 181353Z 14003KT 10SM OVC100 M06/M16 A3052 RMK AO2 SLP332 T10611161
KPOU - Poughkeepsie, New York, USA
Distance from station: N 55mi, 89km
Updated: 01/18/2020 8:53am
Mostly cloudy
Mostly cloudy
 Wind from calm
Wind: Calm
Temperature: 16°F , -9°C
Dew Point: -0°F , -18°C
Humidity: 48%
Barometer: 30.51 inHg , 1033.2 hPa
Clouds: Mostly cloudy
Visibility: 10 miles , 16 km
Cloud details: Mostly cloudy 11000 ft
2020/01/18 13:53 KPOU 181353Z 00000KT 10SM BKN110 M09/M18 A3051 RMK AO2 PRESFR SLP331 T10941178
 
KNEL - Lakehurst Nas, New Jersey, USA
Distance from station: SSW 59mi, 95km
Updated: 01/18/2020 9:00am
Overcast
Overcast
 Wind from ESE
Wind: ESE 3 mph , 6 km/h
Temperature: 21°F , -6°C
Dew Point: 7°F , -14°C
Humidity: 54%
Barometer: 30.53 inHg , 1033.9 hPa
Clouds: Overcast
Visibility: 10 miles , 16 km
Cloud details: Overcast 11000 ft
2020/01/18 14:00 KNEL 181400Z AUTO 12003KT 10SM OVC110 M06/M14 A3053 RMK AO2 SLP336 T10561139 FZRANO $
KWRI - Wrightst/Mcguire, New Jersey, USA
Distance from station: SSW 63mi, 102km
Updated: 01/18/2020 8:56am
Overcast
Overcast
 Wind from ESE
Wind: ESE 5 mph , 7 km/h
Temperature: 23°F , -5°C
Wind Chill: 17°F , -8°C
Dew Point: 5°F , -15°C
Humidity: 46%
Barometer: 30.52 inHg , 1033.5 hPa
Clouds: Overcast
Visibility: 10 miles , 16 km
Cloud details: Mostly cloudy 10000 ft
Overcast 16000 ft
2020/01/18 13:56 KWRI 181356Z AUTO 11004KT 10SM BKN100 OVC160 M05/M15 A3052 RMK AO2 SLP337 T10551148
 
KHWV - Shirley, New York, USA
Distance from station: E 64mi, 103km
Updated: 01/18/2020 8:56am
Few Clouds
Few Clouds
 Wind from NW
Wind: NW 5 mph , 7 km/h
Temperature: 21°F , -6°C
Wind Chill: 14°F , -10°C
Dew Point: 7°F , -14°C
Humidity: 54%
Barometer: 30.55 inHg , 1034.5 hPa
Clouds: Few Clouds
Visibility: 10 miles , 16 km
Cloud details: Few Clouds 12000 ft
2020/01/18 13:56 KHWV 181356Z AUTO 32004KT 10SM FEW120 M06/M14 A3055 RMK AO2 SLP344 T10561144 TSNO
KMJX - Toms River, New Jersey, USA
Distance from station: S 64mi, 104km
Updated: 01/18/2020 8:56am
Mostly cloudy
Mostly cloudy
 Wind from calm
Wind: Calm
Temperature: 23°F , -5°C
Dew Point: 10°F , -12°C
Humidity: 58%
Barometer: 30.54 inHg , 1034.2 hPa
Clouds: Mostly cloudy
Visibility: 10 miles , 16 km
Cloud details: Mostly cloudy 10000 ft
2020/01/18 13:56 KMJX 181356Z AUTO 00000KT 10SM BKN100 M05/M12 A3054 RMK AO2 SLP347 T10501117 FZRANO
 
KDYL - Doylestown, Pennsylvania, USA
Distance from station: SW 65mi, 104km
Updated: 01/18/2020 8:54am
Overcast
Overcast
 Wind from calm
Wind: Calm
Temperature: 21°F , -6°C
Dew Point: -0°F , -18°C
Humidity: 38%
Barometer: 30.50 inHg , 1032.8 hPa
Clouds: Overcast
Visibility: 10 miles , 16 km
Cloud details: Overcast 9000 ft
2020/01/18 13:54 KDYL 181354Z AUTO 00000KT 10SM OVC090 M06/M18 A3050 RMK AO2 SLP341 T10561178
KOXC - Oxford/Waterbury, Connecticut, USA
Distance from station: NE 65mi, 105km
Updated: 01/18/2020 8:51am
Partly cloudy
Partly cloudy
 Wind from calm
Wind: Calm
Temperature: 14°F , -10°C
Dew Point: 1°F , -17°C
Humidity: 57%
Barometer: 30.49 inHg , 1032.5 hPa
Clouds: Partly cloudy
Visibility: 10 miles , 16 km
Cloud details: Partly cloudy 11000 ft
2020/01/18 13:51 KOXC 181351Z 00000KT 10SM SCT110 M10/M17 A3049 RMK AO2 SLP352 T11001172
 
KMSV - Monticello, New York, USA
Distance from station: NNW 69mi, 111km
Updated: 01/18/2020 8:56am
Overcast
Overcast
 Wind from ESE
Wind: ESE 7 mph , 11 km/h
Temperature: 14°F , -10°C
Wind Chill: 4°F , -16°C
Dew Point: 3°F , -16°C
Humidity: 62%
Barometer: 30.39 inHg , 1029.1 hPa
Clouds: Overcast
Visibility: 10 miles , 16 km
Cloud details: Partly cloudy 6500 ft
Overcast 10000 ft
2020/01/18 13:56 KMSV 181356Z AUTO 11006KT 10SM SCT065 OVC100 M10/M16 A3039 RMK AO2 SLP319 T11001161 FZRANO
KHVN - New Haven/Tweed, Connecticut, USA
Distance from station: ENE 70mi, 112km
Updated: 01/18/2020 8:53am
Overcast
Overcast
 Wind from WNW
Wind: WNW 3 mph , 6 km/h
Temperature: 19°F , -7°C
Dew Point: 1°F , -17°C
Humidity: 45%
Barometer: 30.54 inHg , 1034.2 hPa
Clouds: Overcast
Visibility: 10 miles , 16 km
Cloud details: Overcast 11000 ft
2020/01/18 13:53 KHVN 181353Z 29003KT 10SM OVC110 M07/M17 A3054 RMK AO2 SLP342 T10721167
 
KMPO - Mt. Pocono, Pennsylvania, USA
Distance from station: WNW 70mi, 113km
Updated: 01/18/2020 8:53am
Overcast
Overcast
 Wind from SE
Wind: SE 6 mph , 9 km/h
Temperature: 14°F , -10°C
Wind Chill: 5°F , -15°C
Dew Point: 1°F , -17°C
Humidity: 57%
Barometer: 30.33 inHg , 1027.1 hPa
Clouds: Overcast
Visibility: 10 miles , 16 km
Cloud details: Overcast 7500 ft
2020/01/18 13:53 KMPO 181353Z AUTO 13005KT 10SM OVC075 M10/M17 A3033 RMK AO2 SLP312 T11001172
KPNE - Philadelphia/Ne, Pennsylvania, USA
Distance from station: SW 72mi, 116km
Updated: 01/18/2020 8:54am
Overcast
Overcast
 Wind from ESE
Wind: ESE 3 mph , 6 km/h
Temperature: 25°F , -4°C
Dew Point: 3°F , -16°C
Humidity: 39%
Barometer: 30.55 inHg , 1034.5 hPa
Clouds: Overcast
Visibility: 10 miles , 16 km
Cloud details: Overcast 10000 ft
2020/01/18 13:54 KPNE 181354Z 12003KT 10SM OVC100 M04/M16 A3055 RMK AO2 SLP347 T10441161
 
KABE - Allentown, Pennsylvania, USA
Distance from station: W 73mi, 117km
Updated: 01/18/2020 8:51am
Overcast
Overcast
 Wind from calm
Wind: Calm
Temperature: 23°F , -5°C
Dew Point: 1°F , -17°C
Humidity: 39%
Barometer: 30.49 inHg , 1032.5 hPa
Clouds: Overcast
Visibility: 10 miles , 16 km
Cloud details: Overcast 8000 ft
2020/01/18 13:51 KABE 181351Z 00000KT 10SM OVC080 M05/M17 A3049 RMK AO2 SLP332 T10501172
KUKT - Quakertown Arp, Pennsylvania, USA
Distance from station: WSW 74mi, 119km
Updated: 01/18/2020 8:55am
Overcast
Overcast
 Wind from SSE
Wind: SSE 3 mph , 6 km/h
Temperature: 21°F , -6°C
Dew Point: -0°F , -18°C
Humidity: 38%
Barometer: 30.50 inHg , 1032.8 hPa
Clouds: Overcast
Visibility: 10 miles , 16 km
Cloud details: Mostly cloudy 7000 ft
Overcast 8000 ft
2020/01/18 13:55 KUKT 181355Z AUTO 15003KT 10SM BKN070 OVC080 M06/M18 A3050 RMK A01
 
KVAY - Mount Holly, New Jersey, USA
Distance from station: SSW 75mi, 120km
Updated: 01/18/2020 8:54am
Overcast
Overcast
 Wind from SE
Wind: SE 6 mph , 9 km/h
Temperature: 23°F , -5°C
Wind Chill: 16°F , -9°C
Dew Point: 7°F , -14°C
Humidity: 50%
Barometer: 30.54 inHg , 1034.2 hPa
Clouds: Overcast
Visibility: 10 miles , 16 km
Cloud details: Overcast 10000 ft
2020/01/18 13:54 KVAY 181354Z AUTO 13005KT 10SM OVC100 M05/M14 A3054 RMK AO2 SLP342 T10501144
KXLL - Allentown Queen, Pennsylvania, USA
Distance from station: WSW 76mi, 122km
Updated: 01/18/2020 8:55am
Overcast
Overcast
 Wind from calm
Wind: Calm
Temperature: 23°F , -5°C
Dew Point: 3°F , -16°C
Humidity: 42%
Barometer: 30.51 inHg , 1033.2 hPa
Clouds: Overcast
Visibility: 10 miles , 16 km
Cloud details: Overcast 8000 ft
2020/01/18 13:55 KXLL 181355Z AUTO 00000KT 10SM OVC080 M05/M16 A3051 RMK AO2
 
KFOK - Westhampton Beac, New York, USA
Distance from station: E 77mi, 124km
Updated: 01/18/2020 8:53am
Few Clouds
Few Clouds
 Wind from N
Wind: N 5 mph , 7 km/h
Temperature: 21°F , -6°C
Wind Chill: 14°F , -10°C
Dew Point: 7°F , -14°C
Humidity: 54%
Barometer: 30.56 inHg , 1034.9 hPa
Clouds: Few Clouds
Visibility: 10 miles , 16 km
Cloud details: Few Clouds 12000 ft
2020/01/18 13:53 KFOK 181353Z 35004KT 10SM FEW120 M06/M14 A3056 RMK AO2 SLP350 T10611139
KLOM - Philly Wings F, Pennsylvania, USA
Distance from station: SW 79mi, 128km
Updated: 01/18/2020 8:55am
Overcast
Overcast
 Wind from S
Wind: S 3 mph , 6 km/h
Temperature: 21°F , -6°C
Dew Point: 1°F , -17°C
Humidity: 42%
Barometer: 30.53 inHg , 1033.9 hPa
Clouds: Overcast
Visibility: 10 miles , 16 km
Cloud details: Overcast 9000 ft
2020/01/18 13:55 KLOM 181355Z AUTO 17003KT 10SM OVC090 M06/M17 A3053 RMK AO2 T10561171
 
KMMK - Meriden, Connecticut, USA
Distance from station: NE 80mi, 128km
Updated: 01/18/2020 8:53am
Overcast
Overcast
 Wind from WNW
Wind: WNW 7 mph , 11 km/h
Temperature: 18°F , -8°C
Wind Chill: 9°F , -13°C
Dew Point: -0°F , -18°C
Humidity: 45%
Barometer: 30.54 inHg , 1034.2 hPa
Clouds: Overcast
Visibility: 10 miles , 16 km
Cloud details: Overcast 11000 ft
2020/01/18 13:53 KMMK 181353Z AUTO 30006KT 10SM OVC110 M08/M18 A3054 RMK AO2 SLP345 T10831183
KPTW - Pottstown, Pennsylvania, USA
Distance from station: WSW 88mi, 141km
Updated: 01/18/2020 8:54am
Overcast
Overcast
 Wind from SSE
Wind: SSE 3 mph , 6 km/h
Temperature: 19°F , -7°C
Dew Point: 5°F , -15°C
Humidity: 53%
Barometer: 30.52 inHg , 1033.5 hPa
Clouds: Overcast
Visibility: 9 miles , 14 km
Cloud details: Mostly cloudy 8000 ft
Overcast 9000 ft
2020/01/18 13:54 KPTW 181354Z AUTO 15003KT 9SM BKN080 OVC090 M07/M15 A3052 RMK AO2 SLP339 T10671150
 
KSNC - Chester, Connecticut, USA
Distance from station: ENE 90mi, 146km
Updated: 01/18/2020 8:35am
Clear
Clear
 Wind from varies
Wind: varies 6 mph , 9 km/h
Temperature: 16°F , -9°C
Wind Chill: 7°F , -14°C
Dew Point: -0°F , -18°C
Humidity: 48%
Barometer: 30.52 inHg , 1033.5 hPa
Clouds: Clear
Visibility: 10 miles , 16 km
2020/01/18 13:35 KSNC 181335Z AUTO VRB05KT 10SM CLR M09/M18 A3052 RMK AO2
KPHL - Philadelphia, Pennsylvania, USA
Distance from station: SW 91mi, 146km
Updated: 01/18/2020 8:54am
Overcast
Overcast
 Wind from varies
Wind: varies 3 mph , 6 km/h
Temperature: 23°F , -5°C
Dew Point: 1°F , -17°C
Humidity: 39%
Barometer: 30.56 inHg , 1034.9 hPa
Clouds: Overcast
Visibility: 10 miles , 16 km
Cloud details: Overcast 10000 ft
2020/01/18 13:54 KPHL 181354Z VRB03KT 10SM OVC100 M05/M17 A3056 RMK AO2 SLP346 T10501167 $
 
KAVP - Avoca/Wilkes B., Pennsylvania, USA
Distance from station: WNW 91mi, 147km
Updated: 01/18/2020 8:54am
Overcast
Overcast
 Wind from calm
Wind: Calm
Temperature: 19°F , -7°C
Dew Point: 3°F , -16°C
Humidity: 49%
Barometer: 30.39 inHg , 1029.1 hPa
Clouds: Overcast
Visibility: 10 miles , 16 km
Cloud details: Overcast 8000 ft
2020/01/18 13:54 KAVP 181354Z 00000KT 10SM OVC080 M07/M16 A3039 RMK AO2 SLP307 T10721156
KHFD - Hartford/Brainar, Connecticut, USA
Distance from station: NE 96mi, 155km
Updated: 01/18/2020 8:53am
Overcast
Overcast
 Wind from calm
Wind: Calm
Temperature: 18°F , -8°C
Dew Point: -0°F , -18°C
Humidity: 45%
Barometer: 30.56 inHg , 1034.9 hPa
Clouds: Overcast
Visibility: 10 miles , 16 km
Cloud details: Overcast 10000 ft
2020/01/18 13:53 KHFD 181353Z 00000KT 10SM OVC100 M08/M18 A3056 RMK AO2 SLP347 T10831178
 
KHTO - East Hampton, New York, USA
Distance from station: E 96mi, 155km
Updated: 01/18/2020 8:55am
Overcast
Overcast
 Wind from NW
Wind: NW 3 mph , 6 km/h
Temperature: 19°F , -7°C
Dew Point: 5°F , -15°C
Humidity: 53%
Barometer: 30.55 inHg , 1034.5 hPa
Clouds: Overcast
Visibility: 10 miles , 16 km
Cloud details: Overcast 11000 ft
2020/01/18 13:55 KHTO 181355Z AUTO 32003KT 10SM OVC110 M07/M15 A3055 RMK AO2 T10671153
KACY - Atlantic City, New Jersey, USA
Distance from station: SSW 99mi, 160km
Updated: 01/18/2020 8:54am
Overcast
Overcast
 Wind from SE
Wind: SE 3 mph , 6 km/h
Temperature: 25°F , -4°C
Dew Point: 9°F , -13°C
Humidity: 50%
Barometer: 30.54 inHg , 1034.2 hPa
Clouds: Overcast
Visibility: 10 miles , 16 km
Cloud details: Overcast 10000 ft
2020/01/18 13:54 KACY 181354Z 13003KT 10SM OVC100 M04/M13 A3054 RMK AO2 SLP342 T10391128